createdAt,value
2023-03-13T00:01:38.192Z,7.59
2023-03-13T00:04:09.365Z,7.63
2023-03-13T00:06:39.923Z,7.63
2023-03-13T00:09:10.812Z,7.74
2023-03-13T00:11:39.901Z,7.64
2023-03-13T00:14:10.443Z,7.69
2023-03-13T00:16:40.487Z,7.66
2023-03-13T00:19:11.381Z,7.65
2023-03-13T00:21:41.181Z,7.59
2023-03-13T00:24:11.968Z,7.53
2023-03-13T00:26:41.008Z,7.56
2023-03-13T00:29:10.023Z,7.56
2023-03-13T00:31:39.076Z,7.52
2023-03-13T00:34:08.106Z,7.59
2023-03-13T00:36:40.856Z,7.53
2023-03-13T00:39:10.572Z,7.52
2023-03-13T00:41:39.959Z,7.52
2023-03-13T00:44:09.183Z,7.51
2023-03-13T00:46:38.564Z,7.48
2023-03-13T00:49:07.990Z,7.52
2023-03-13T00:51:37.002Z,7.62
2023-03-13T00:54:07.425Z,7.69
2023-03-13T00:56:37.039Z,7.70
2023-03-13T00:59:06.280Z,7.75
2023-03-13T01:01:36.974Z,7.73
2023-03-13T01:04:07.807Z,7.73
2023-03-13T01:06:40.413Z,7.82
2023-03-13T01:09:12.691Z,7.90
2023-03-13T01:11:43.924Z,7.94
2023-03-13T01:14:15.895Z,7.99
2023-03-13T01:16:45.193Z,7.95
2023-03-13T01:19:16.651Z,7.95
2023-03-13T01:21:47.580Z,7.99
2023-03-13T01:24:19.181Z,8.01
2023-03-13T01:26:48.466Z,7.99
2023-03-13T01:29:18.186Z,8.00
2023-03-13T01:31:47.506Z,8.01
2023-03-13T01:34:16.517Z,8.08
2023-03-13T01:36:46.719Z,8.06
2023-03-13T01:39:17.254Z,8.10
2023-03-13T01:41:46.329Z,8.22
2023-03-13T01:44:23.397Z,8.19
2023-03-13T01:46:53.034Z,8.20
2023-03-13T01:49:33.251Z,8.22
2023-03-13T01:52:19.466Z,8.28
2023-03-13T01:55:14.842Z,8.38
2023-03-13T01:57:49.372Z,8.48
2023-03-13T02:00:23.785Z,8.40
2023-03-13T02:02:56.329Z,8.39
2023-03-13T02:05:28.450Z,8.45
2023-03-13T02:08:01.966Z,8.49
2023-03-13T02:10:45.126Z,8.42
2023-03-13T02:13:17.332Z,8.37
2023-03-13T02:15:47.303Z,8.39
2023-03-13T02:18:17.236Z,8.35
2023-03-13T02:20:51.690Z,8.34
2023-03-13T02:23:28.817Z,8.40
2023-03-13T02:25:59.480Z,8.34
2023-03-13T02:28:39.299Z,8.38
2023-03-13T02:31:13.209Z,8.30
2023-03-13T02:33:43.958Z,8.29
2023-03-13T02:36:17.761Z,8.20
2023-03-13T02:38:54.833Z,8.22
2023-03-13T02:41:26.571Z,8.13
2023-03-13T02:43:57.352Z,8.07
2023-03-13T02:46:26.567Z,8.06
2023-03-13T02:48:57.656Z,8.04
2023-03-13T02:51:33.637Z,8.02
2023-03-13T02:54:07.685Z,8.00
2023-03-13T02:56:39.965Z,8.04
2023-03-13T02:59:10.667Z,7.99
2023-03-13T03:01:42.296Z,7.90
2023-03-13T03:04:11.466Z,7.93
2023-03-13T03:06:40.930Z,7.96
2023-03-13T03:09:10.264Z,7.97
2023-03-13T03:11:41.260Z,7.85
2023-03-13T03:14:14.955Z,7.90
2023-03-13T03:16:47.235Z,7.94
2023-03-13T03:19:16.627Z,7.91
2023-03-13T03:21:45.719Z,7.93
2023-03-13T03:24:14.704Z,7.91
2023-03-13T03:26:45.168Z,7.97
2023-03-13T03:29:21.192Z,7.90
2023-03-13T03:31:53.251Z,7.97
2023-03-13T03:34:22.871Z,7.96
2023-03-13T03:36:52.517Z,7.97
2023-03-13T03:39:21.686Z,8.03
2023-03-13T03:41:52.685Z,8.02
2023-03-13T03:44:21.948Z,7.96
2023-03-13T03:46:59.986Z,7.99
2023-03-13T03:49:32.402Z,7.93
2023-03-13T03:52:01.729Z,7.94
2023-03-13T03:54:36.167Z,7.97
2023-03-13T03:57:07.064Z,7.88
2023-03-13T03:59:37.026Z,7.91
2023-03-13T04:02:09.487Z,7.91
2023-03-13T04:04:38.912Z,7.87
2023-03-13T04:07:30.930Z,7.93
2023-03-13T04:10:01.170Z,7.91
2023-03-13T04:12:38.900Z,7.85
2023-03-13T04:15:08.867Z,7.86
2023-03-13T04:17:39.310Z,7.89
2023-03-13T04:20:11.273Z,7.85
2023-03-13T04:22:40.624Z,7.89
2023-03-13T04:25:10.881Z,7.85
2023-03-13T04:27:41.639Z,7.87
2023-03-13T04:30:12.618Z,7.91
2023-03-13T04:32:51.326Z,7.85
2023-03-13T04:35:45.116Z,7.85
2023-03-13T04:38:26.695Z,7.83
2023-03-13T04:41:04.552Z,7.88
2023-03-13T04:44:10.416Z,7.96
2023-03-13T04:46:39.384Z,7.98
2023-03-13T04:49:16.739Z,7.92
2023-03-13T04:51:57.898Z,7.96
2023-03-13T04:54:50.951Z,7.96
2023-03-13T04:57:31.231Z,7.90
2023-03-13T05:00:28.058Z,7.94
2023-03-13T05:03:13.033Z,7.93
2023-03-13T05:05:53.113Z,7.97
2023-03-13T05:08:57.172Z,8.02
2023-03-13T05:11:50.349Z,7.98
2023-03-13T05:14:28.214Z,7.92
2023-03-13T05:17:18.871Z,7.88
2023-03-13T05:20:11.205Z,7.81
2023-03-13T05:22:49.952Z,7.83
2023-03-13T05:25:29.730Z,7.85
2023-03-13T05:28:24.634Z,7.77
2023-03-13T05:31:13.310Z,7.83
2023-03-13T05:33:56.462Z,7.82
2023-03-13T05:36:44.654Z,7.89
2023-03-13T05:39:39.927Z,7.90
2023-03-13T05:42:21.263Z,7.89
2023-03-13T05:45:03.444Z,7.88
2023-03-13T05:48:07.586Z,7.98
2023-03-13T05:50:55.990Z,8.01
2023-03-13T05:53:43.560Z,8.00
2023-03-13T05:56:32.481Z,7.95
2023-03-13T05:59:21.816Z,7.89
2023-03-13T06:02:12.102Z,7.95
2023-03-13T06:04:45.784Z,7.94
2023-03-13T06:07:16.495Z,8.07
2023-03-13T06:09:46.095Z,8.00
2023-03-13T06:12:16.047Z,8.04
2023-03-13T06:14:45.495Z,8.05
2023-03-13T06:17:17.171Z,8.10
2023-03-13T06:19:47.107Z,8.11
2023-03-13T06:22:18.785Z,8.11
2023-03-13T06:24:49.483Z,8.12
2023-03-13T06:27:18.740Z,8.21
2023-03-13T06:29:47.757Z,8.23
2023-03-13T06:32:16.952Z,8.29
2023-03-13T06:34:46.044Z,8.32
2023-03-13T06:37:16.716Z,8.33
2023-03-13T06:39:45.842Z,8.36
2023-03-13T06:42:14.855Z,8.45
2023-03-13T06:44:44.705Z,8.51
2023-03-13T06:47:15.530Z,8.54
2023-03-13T06:49:44.753Z,8.55
2023-03-13T06:52:13.808Z,8.53
2023-03-13T06:54:44.256Z,8.71
2023-03-13T06:57:13.330Z,8.73
2023-03-13T06:59:42.348Z,8.91
2023-03-13T07:02:12.439Z,8.89
2023-03-13T07:04:43.021Z,8.93
2023-03-13T07:07:25.597Z,8.98
2023-03-13T07:10:01.648Z,9.08
2023-03-13T07:12:30.832Z,9.09
2023-03-13T07:14:59.828Z,9.15
2023-03-13T07:17:28.864Z,9.19
2023-03-13T07:19:58.034Z,9.35
2023-03-13T07:22:27.059Z,9.37
2023-03-13T07:24:56.074Z,9.34
2023-03-13T07:27:26.693Z,9.62
2023-03-13T07:29:55.742Z,9.60
2023-03-13T07:32:24.920Z,9.70
2023-03-13T07:34:54.022Z,9.69
2023-03-13T07:37:23.052Z,9.71
2023-03-13T07:39:52.104Z,9.73
2023-03-13T07:42:21.112Z,9.75
2023-03-13T07:44:51.498Z,9.76
2023-03-13T07:47:20.508Z,9.82
2023-03-13T07:49:49.627Z,9.84
2023-03-13T07:52:18.987Z,9.87
2023-03-13T07:54:47.994Z,9.97
2023-03-13T07:57:17.048Z,10.02
2023-03-13T07:59:46.052Z,10.08
2023-03-13T08:02:16.935Z,10.16
2023-03-13T08:04:46.180Z,10.21
2023-03-13T08:07:15.311Z,10.28
2023-03-13T08:09:44.531Z,10.37
2023-03-13T08:12:13.623Z,10.40
2023-03-13T08:14:42.654Z,10.45
2023-03-13T08:17:11.720Z,10.47
2023-03-13T08:19:42.072Z,10.56
2023-03-13T08:22:11.094Z,10.59
2023-03-13T08:24:40.082Z,10.62
2023-03-13T08:27:09.180Z,10.72
2023-03-13T08:29:38.276Z,10.80
2023-03-13T08:32:07.802Z,10.80
2023-03-13T08:34:36.909Z,10.85
2023-03-13T08:37:07.347Z,10.88
2023-03-13T08:39:36.775Z,10.98
2023-03-13T08:42:06.063Z,11.00
2023-03-13T08:44:35.047Z,11.01
2023-03-13T08:47:06.634Z,11.04
2023-03-13T08:49:35.982Z,11.12
2023-03-13T08:52:08.061Z,11.21
2023-03-13T08:54:37.274Z,11.18
2023-03-13T08:57:06.301Z,11.16
2023-03-13T08:59:35.353Z,11.21
2023-03-13T09:02:04.515Z,11.36
2023-03-13T09:04:33.547Z,11.31
2023-03-13T09:07:02.616Z,11.38
2023-03-13T09:09:32.979Z,11.36
2023-03-13T09:12:02.012Z,11.45
2023-03-13T09:14:31.101Z,11.52
2023-03-13T09:17:00.245Z,11.47
2023-03-13T09:19:29.285Z,11.55
2023-03-13T09:21:58.291Z,11.53
2023-03-13T09:24:27.894Z,11.65
2023-03-13T09:27:01.464Z,11.66
2023-03-13T09:29:30.702Z,11.76
2023-03-13T09:31:59.905Z,11.84
2023-03-13T09:34:28.922Z,11.90
2023-03-13T09:36:57.958Z,11.94
2023-03-13T09:39:27.037Z,11.86
2023-03-13T09:42:07.765Z,11.93
2023-03-13T09:44:46.668Z,11.96
2023-03-13T09:47:23.492Z,11.96
2023-03-13T09:49:56.758Z,12.05
2023-03-13T09:52:27.534Z,11.99
2023-03-13T09:55:00.636Z,12.04
2023-03-13T09:57:36.782Z,12.10
2023-03-13T10:00:12.876Z,12.14
2023-03-13T10:02:45.618Z,12.07
2023-03-13T10:05:21.416Z,12.10
2023-03-13T10:07:53.852Z,12.21
2023-03-13T10:10:32.973Z,12.22
2023-03-13T10:13:12.964Z,12.28
2023-03-13T10:15:46.672Z,12.37
2023-03-13T10:18:21.693Z,12.31
2023-03-13T10:20:52.425Z,12.27
2023-03-13T10:23:28.427Z,12.38
2023-03-13T10:25:57.562Z,12.44
2023-03-13T10:28:28.170Z,12.54
2023-03-13T10:31:04.797Z,12.49
2023-03-13T10:33:35.705Z,12.53
2023-03-13T10:36:11.052Z,12.50
2023-03-13T10:38:50.440Z,12.58
2023-03-13T10:41:27.936Z,12.70
2023-03-13T10:44:02.226Z,12.70
2023-03-13T10:46:34.228Z,13.07
2023-03-13T10:49:05.065Z,13.37
2023-03-13T10:51:39.209Z,13.81
2023-03-13T10:54:16.970Z,13.52
2023-03-13T10:56:46.131Z,13.52
2023-03-13T10:59:27.687Z,13.70
2023-03-13T11:02:01.899Z,13.56
2023-03-13T11:04:33.744Z,13.40
2023-03-13T11:07:07.654Z,13.36
2023-03-13T11:09:36.682Z,13.30
2023-03-13T11:12:10.706Z,13.34
2023-03-13T11:14:42.624Z,13.28
2023-03-13T11:17:24.582Z,13.34
2023-03-13T11:20:04.130Z,13.78
2023-03-13T11:22:49.407Z,14.24
2023-03-13T11:25:24.157Z,14.03
2023-03-13T11:28:24.109Z,14.46
2023-03-13T11:31:18.079Z,14.66
2023-03-13T11:33:57.422Z,14.59
2023-03-13T11:36:34.838Z,14.43
2023-03-13T11:39:17.062Z,14.87
2023-03-13T11:41:59.877Z,15.02
2023-03-13T11:44:40.503Z,14.79
2023-03-13T11:47:33.252Z,14.71
2023-03-13T11:50:19.642Z,14.89
2023-03-13T11:52:59.837Z,15.83
2023-03-13T11:55:41.977Z,15.90
2023-03-13T11:58:31.201Z,16.09
2023-03-13T12:01:05.947Z,15.72
2023-03-13T12:03:41.791Z,15.56
2023-03-13T12:06:28.416Z,15.57
2023-03-13T12:09:04.223Z,15.93
2023-03-13T12:11:43.499Z,15.30
2023-03-13T12:14:18.330Z,15.91
2023-03-13T12:16:52.881Z,16.73
2023-03-13T12:19:28.548Z,16.87
2023-03-13T12:22:02.978Z,16.21
2023-03-13T12:24:37.885Z,15.58
2023-03-13T12:27:16.510Z,15.35
2023-03-13T12:29:54.441Z,15.73
2023-03-13T12:32:30.479Z,15.87
2023-03-13T12:35:08.753Z,15.45
2023-03-13T12:37:44.998Z,15.76
2023-03-13T12:40:23.689Z,15.52
2023-03-13T12:42:59.111Z,15.81
2023-03-13T12:45:29.778Z,15.82
2023-03-13T12:48:18.715Z,16.25
2023-03-13T12:51:03.985Z,16.10
2023-03-13T12:54:04.125Z,16.26
2023-03-13T12:56:48.313Z,15.76
2023-03-13T12:59:20.397Z,15.48
2023-03-13T13:01:52.203Z,15.43
2023-03-13T13:04:24.915Z,15.30
2023-03-13T13:07:01.743Z,15.45
2023-03-13T13:09:33.564Z,15.67
2023-03-13T13:12:05.065Z,16.49
2023-03-13T13:15:04.045Z,15.83
2023-03-13T13:17:58.341Z,15.69
2023-03-13T13:20:39.518Z,16.02
2023-03-13T13:23:39.239Z,15.78
2023-03-13T13:26:47.093Z,15.90
2023-03-13T13:29:58.752Z,15.98
2023-03-13T13:32:47.061Z,16.64
2023-03-13T13:35:33.680Z,17.22
2023-03-13T13:38:29.040Z,16.43
2023-03-13T13:41:05.400Z,16.13
2023-03-13T13:43:36.380Z,16.10
2023-03-13T13:46:18.100Z,16.14
2023-03-13T13:48:47.320Z,16.24
2023-03-13T13:51:34.693Z,16.14
2023-03-13T13:54:07.231Z,16.14
2023-03-13T13:56:49.524Z,16.20
2023-03-13T13:59:34.266Z,16.31
2023-03-13T14:02:20.836Z,16.47
2023-03-13T14:05:01.515Z,16.44
2023-03-13T14:07:38.571Z,16.49
2023-03-13T14:10:17.924Z,16.44
2023-03-13T14:12:53.257Z,16.38
2023-03-13T14:15:23.647Z,16.48
2023-03-13T14:17:54.431Z,16.43
2023-03-13T14:20:32.733Z,16.48
2023-03-13T14:23:06.122Z,16.72
2023-03-13T14:25:53.163Z,17.44
2023-03-13T14:28:25.421Z,16.91
2023-03-13T14:30:57.572Z,16.93
2023-03-13T14:33:27.875Z,16.70
2023-03-13T14:35:57.768Z,16.92
2023-03-13T14:38:29.926Z,16.74
2023-03-13T14:40:59.296Z,17.01
2023-03-13T14:43:34.530Z,17.25
2023-03-13T14:46:15.766Z,17.28
2023-03-13T14:48:45.037Z,16.84
2023-03-13T14:51:22.837Z,16.67
2023-03-13T14:53:56.667Z,16.78
2023-03-13T14:56:34.908Z,16.70
2023-03-13T14:59:18.001Z,16.67
2023-03-13T15:01:47.530Z,16.72
2023-03-13T15:04:16.725Z,17.28
2023-03-13T15:06:46.113Z,16.81
2023-03-13T15:09:26.413Z,16.75
2023-03-13T15:12:01.190Z,16.68
2023-03-13T15:14:37.810Z,17.11
2023-03-13T15:17:14.946Z,17.24
2023-03-13T15:19:44.790Z,16.98
2023-03-13T15:22:16.635Z,16.79
2023-03-13T15:24:59.709Z,16.84
2023-03-13T15:27:34.030Z,16.83
2023-03-13T15:30:05.051Z,17.25
2023-03-13T15:32:36.712Z,17.29
2023-03-13T15:35:25.599Z,16.93
2023-03-13T15:37:55.157Z,16.92
2023-03-13T15:40:25.324Z,16.77
2023-03-13T15:42:54.782Z,16.67
2023-03-13T15:45:25.368Z,16.77
2023-03-13T15:47:54.861Z,16.64
2023-03-13T15:50:29.584Z,16.74
2023-03-13T15:53:00.714Z,16.84
2023-03-13T15:55:30.987Z,16.74
2023-03-13T15:58:00.321Z,16.59
2023-03-13T16:00:30.845Z,16.50
2023-03-13T16:03:03.960Z,16.57
2023-03-13T16:05:33.284Z,16.93
2023-03-13T16:08:02.322Z,16.77
2023-03-13T16:10:33.087Z,16.72
2023-03-13T16:13:03.374Z,16.58
2023-03-13T16:15:33.858Z,16.57
2023-03-13T16:18:03.512Z,16.63
2023-03-13T16:20:34.027Z,16.63
2023-03-13T16:23:04.122Z,16.65
2023-03-13T16:25:33.818Z,16.49
2023-03-13T16:28:02.860Z,16.63
2023-03-13T16:30:34.732Z,16.67
2023-03-13T16:33:04.317Z,16.43
2023-03-13T16:35:33.707Z,16.48
2023-03-13T16:38:03.627Z,16.39
2023-03-13T16:40:34.649Z,16.38
2023-03-13T16:43:03.829Z,16.47
2023-03-13T16:45:34.346Z,16.33
2023-03-13T16:48:03.516Z,16.27
2023-03-13T16:50:36.788Z,16.41
2023-03-13T16:53:06.394Z,16.21
2023-03-13T16:55:37.245Z,16.39
2023-03-13T16:58:06.825Z,16.41
2023-03-13T17:00:37.286Z,16.28
2023-03-13T17:03:06.455Z,16.24
2023-03-13T17:05:35.848Z,16.16
2023-03-13T17:08:05.744Z,16.04
2023-03-13T17:10:35.249Z,16.07
2023-03-13T17:13:05.488Z,16.10
2023-03-13T17:15:36.085Z,16.04
2023-03-13T17:18:05.513Z,16.01
2023-03-13T17:20:34.874Z,15.90
2023-03-13T17:23:04.104Z,15.93
2023-03-13T17:25:33.406Z,15.88
2023-03-13T17:28:02.546Z,15.70
2023-03-13T17:30:32.860Z,15.82
2023-03-13T17:33:03.424Z,15.91
2023-03-13T17:35:32.547Z,15.83
2023-03-13T17:38:01.717Z,15.74
2023-03-13T17:40:32.598Z,15.68
2023-03-13T17:43:01.902Z,15.56
2023-03-13T17:45:36.658Z,15.59
2023-03-13T17:48:12.453Z,15.49
2023-03-13T17:50:41.605Z,15.59
2023-03-13T17:53:10.742Z,15.50
2023-03-13T17:55:39.978Z,15.51
2023-03-13T17:58:09.951Z,15.40
2023-03-13T18:00:44.908Z,15.36
2023-03-13T18:03:15.574Z,15.41
2023-03-13T18:05:44.688Z,15.34
2023-03-13T18:08:13.855Z,15.21
2023-03-13T18:10:43.212Z,15.29
2023-03-13T18:13:12.475Z,15.16
2023-03-13T18:15:41.733Z,15.03
2023-03-13T18:18:18.024Z,15.16
2023-03-13T18:20:47.475Z,15.12
2023-03-13T18:23:16.580Z,15.00
2023-03-13T18:25:45.958Z,14.85
2023-03-13T18:28:15.235Z,14.62
2023-03-13T18:30:44.270Z,14.48
2023-03-13T18:33:13.470Z,14.46
2023-03-13T18:35:43.917Z,14.93
2023-03-13T18:38:13.853Z,14.77
2023-03-13T18:40:42.986Z,14.41
2023-03-13T18:43:12.373Z,14.31
2023-03-13T18:45:41.905Z,14.02
2023-03-13T18:48:12.209Z,13.97
2023-03-13T18:50:42.808Z,14.03
2023-03-13T18:53:12.082Z,14.10
2023-03-13T18:55:41.180Z,13.94
2023-03-13T18:58:11.628Z,14.07
2023-03-13T19:00:41.159Z,14.02
2023-03-13T19:03:10.564Z,13.99
2023-03-13T19:05:40.117Z,13.99
2023-03-13T19:08:12.532Z,14.14
2023-03-13T19:10:42.147Z,13.97
2023-03-13T19:13:11.581Z,13.87
2023-03-13T19:15:40.743Z,13.87
2023-03-13T19:18:12.853Z,13.73
2023-03-13T19:20:41.944Z,13.79
2023-03-13T19:23:13.069Z,13.82
2023-03-13T19:25:42.268Z,13.56
2023-03-13T19:28:11.694Z,13.45
2023-03-13T19:30:43.783Z,13.57
2023-03-13T19:33:13.047Z,13.41
2023-03-13T19:35:42.257Z,13.35
2023-03-13T19:38:14.025Z,13.28
2023-03-13T19:40:43.089Z,13.28
2023-03-13T19:43:12.269Z,13.10
2023-03-13T19:45:41.801Z,13.12
2023-03-13T19:48:11.096Z,13.10
2023-03-13T19:50:40.280Z,12.98
2023-03-13T19:53:09.482Z,13.27
2023-03-13T19:55:39.978Z,13.26
2023-03-13T19:58:09.324Z,13.20
2023-03-13T20:00:38.835Z,13.14
2023-03-13T20:03:08.061Z,13.10
2023-03-13T20:05:37.109Z,13.12
2023-03-13T20:08:06.357Z,13.05
2023-03-13T20:10:35.639Z,13.04
2023-03-13T20:13:06.295Z,12.91
2023-03-13T20:15:35.509Z,13.02
2023-03-13T20:18:05.012Z,12.91
2023-03-13T20:20:34.301Z,12.81
2023-03-13T20:23:03.437Z,12.68
2023-03-13T20:25:32.948Z,12.72
2023-03-13T20:28:02.073Z,12.85
2023-03-13T20:30:32.677Z,12.89
2023-03-13T20:33:01.953Z,12.71
2023-03-13T20:35:31.512Z,12.68
2023-03-13T20:38:01.830Z,12.75
2023-03-13T20:40:31.011Z,12.55
2023-03-13T20:43:00.904Z,12.65
2023-03-13T20:45:32.247Z,12.45
2023-03-13T20:48:01.425Z,12.33
2023-03-13T20:50:30.563Z,12.36
2023-03-13T20:52:59.660Z,12.43
2023-03-13T20:55:30.340Z,12.40
2023-03-13T20:57:59.584Z,12.39
2023-03-13T21:00:28.751Z,12.49
2023-03-13T21:02:59.473Z,12.33
2023-03-13T21:05:29.033Z,12.25
2023-03-13T21:07:58.345Z,12.54
2023-03-13T21:10:27.574Z,12.39
2023-03-13T21:12:56.617Z,12.19
2023-03-13T21:15:25.830Z,12.20
2023-03-13T21:17:56.357Z,12.12
2023-03-13T21:20:27.237Z,12.17
2023-03-13T21:22:56.588Z,12.10
2023-03-13T21:25:26.008Z,12.00
2023-03-13T21:27:55.175Z,12.04
2023-03-13T21:30:24.593Z,12.08
2023-03-13T21:32:54.342Z,12.27
2023-03-13T21:35:23.591Z,12.20
2023-03-13T21:37:54.139Z,11.99
2023-03-13T21:40:23.311Z,12.03
2023-03-13T21:42:52.524Z,12.11
2023-03-13T21:45:21.935Z,12.07
2023-03-13T21:47:51.187Z,12.12
2023-03-13T21:52:56.472Z,12.14
2023-03-13T21:55:25.675Z,12.05
2023-03-13T21:57:54.937Z,12.02
2023-03-13T22:00:24.600Z,11.95
2023-03-13T22:02:53.680Z,11.99
2023-03-13T22:05:22.844Z,11.96
2023-03-13T22:07:52.068Z,11.89
2023-03-13T22:10:22.659Z,12.02
2023-03-13T22:12:51.814Z,12.01
2023-03-13T22:15:21.132Z,11.91
2023-03-13T22:17:50.266Z,12.03
2023-03-13T22:20:19.549Z,11.97
2023-03-13T22:22:48.763Z,12.03
2023-03-13T22:25:18.249Z,12.10
2023-03-13T22:27:48.848Z,12.02
2023-03-13T22:30:18.263Z,12.01
2023-03-13T22:32:47.473Z,11.94
2023-03-13T22:35:16.746Z,12.00
2023-03-13T22:37:46.188Z,11.98
2023-03-13T22:40:15.471Z,12.14
2023-03-13T22:42:44.599Z,12.14
2023-03-13T22:45:15.942Z,12.14
2023-03-13T22:47:45.257Z,12.20
2023-03-13T22:50:15.761Z,12.12
2023-03-13T22:52:45.101Z,12.09
2023-03-13T22:55:14.620Z,12.27
2023-03-13T22:57:43.792Z,12.33
2023-03-13T23:00:16.132Z,12.35
2023-03-13T23:02:45.355Z,12.29
2023-03-13T23:05:14.602Z,12.32
2023-03-13T23:07:44.543Z,12.34
2023-03-13T23:10:14.017Z,12.26
2023-03-13T23:12:43.389Z,12.24
2023-03-13T23:15:13.201Z,12.11
2023-03-13T23:17:43.780Z,12.12
2023-03-13T23:20:13.975Z,12.12
2023-03-13T23:22:44.192Z,12.05
2023-03-13T23:25:14.808Z,12.09
2023-03-13T23:27:44.060Z,11.91
2023-03-13T23:30:15.612Z,12.07
2023-03-13T23:32:48.203Z,12.07
2023-03-13T23:35:17.879Z,12.09
2023-03-13T23:37:50.845Z,12.08
2023-03-13T23:40:20.868Z,11.87
2023-03-13T23:42:51.728Z,11.91
2023-03-13T23:45:21.329Z,11.94
2023-03-13T23:47:54.549Z,11.78
2023-03-13T23:50:24.102Z,11.86
2023-03-13T23:52:53.138Z,11.73
2023-03-13T23:55:22.258Z,11.67
2023-03-13T23:57:51.668Z,11.66
